createdAt,value
2018-07-02T00:02:21.503Z,1.50
2018-07-02T00:04:49.776Z,1.50
2018-07-02T00:07:23.594Z,1.57
2018-07-02T00:09:52.338Z,1.40
2018-07-02T00:12:21.395Z,1.40
2018-07-02T00:14:50.699Z,1.50
2018-07-02T00:17:19.000Z,1.73
2018-07-02T00:19:47.540Z,1.27
2018-07-02T00:22:16.169Z,1.43
2018-07-02T00:24:44.437Z,1.40
2018-07-02T00:27:12.694Z,1.30
2018-07-02T00:29:40.956Z,1.50
2018-07-02T00:32:09.217Z,1.40
2018-07-02T00:34:37.556Z,1.43
2018-07-02T00:37:05.817Z,1.37
2018-07-02T00:39:34.084Z,1.40
2018-07-02T00:42:02.356Z,1.70
2018-07-02T00:44:30.635Z,1.60
2018-07-02T00:46:58.922Z,1.60
2018-07-02T00:49:27.204Z,1.40
2018-07-02T00:51:55.634Z,1.40
2018-07-02T00:54:23.915Z,1.43
2018-07-02T00:56:52.197Z,1.47
2018-07-02T00:59:20.459Z,1.47
2018-07-02T01:01:48.716Z,1.50
2018-07-02T01:04:16.968Z,1.60
2018-07-02T01:06:45.245Z,1.53
2018-07-02T01:09:13.660Z,1.50
2018-07-02T01:11:41.935Z,1.40
2018-07-02T01:14:10.193Z,1.70
2018-07-02T01:16:38.453Z,1.60
2018-07-02T01:19:06.770Z,1.50
2018-07-02T01:21:35.024Z,1.63
2018-07-02T01:24:03.292Z,1.70
2018-07-02T01:26:31.532Z,1.80
2018-07-02T01:28:59.792Z,1.60
2018-07-02T01:31:28.052Z,1.50
2018-07-02T01:33:56.304Z,1.50
2018-07-02T01:36:24.565Z,1.53
2018-07-02T01:38:52.854Z,1.60
2018-07-02T01:41:21.116Z,1.50
2018-07-02T01:43:49.371Z,1.40
2018-07-02T01:46:17.643Z,1.90
2018-07-02T01:48:45.909Z,1.83
2018-07-02T01:51:14.177Z,1.63
2018-07-02T01:53:42.444Z,1.83
2018-07-02T01:56:10.723Z,1.70
2018-07-02T01:58:39.003Z,1.80
2018-07-02T02:01:07.252Z,1.50
2018-07-02T02:03:35.516Z,1.50
2018-07-02T02:06:03.786Z,2.00
2018-07-02T02:08:32.060Z,1.80
2018-07-02T02:11:00.307Z,1.80
2018-07-02T02:13:28.568Z,1.97
2018-07-02T02:15:56.845Z,1.60
2018-07-02T02:18:25.092Z,1.70
2018-07-02T02:20:53.356Z,1.63
2018-07-02T02:23:21.621Z,1.70
2018-07-02T02:25:49.888Z,1.77
2018-07-02T02:28:18.140Z,1.70
2018-07-02T02:30:46.393Z,1.60
2018-07-02T02:33:14.672Z,1.80
2018-07-02T02:35:42.934Z,1.50
2018-07-02T02:38:11.209Z,1.60
2018-07-02T02:40:39.485Z,1.87
2018-07-02T02:43:07.741Z,1.87
2018-07-02T02:45:35.994Z,1.60
2018-07-02T02:48:04.312Z,1.80
2018-07-02T02:50:32.572Z,1.53
2018-07-02T02:53:00.840Z,1.50
2018-07-02T02:55:29.126Z,1.53
2018-07-02T02:57:57.395Z,1.70
2018-07-02T03:00:25.677Z,1.60
2018-07-02T03:02:53.933Z,1.70
2018-07-02T03:05:22.225Z,1.83
2018-07-02T03:07:50.483Z,1.50
2018-07-02T03:10:18.798Z,1.57
2018-07-02T03:12:47.001Z,1.90
2018-07-02T03:15:15.265Z,1.80
2018-07-02T03:17:43.516Z,1.90
2018-07-02T03:20:11.763Z,1.70
2018-07-02T03:22:40.021Z,1.90
2018-07-02T03:25:08.280Z,1.90
2018-07-02T03:27:36.565Z,1.50
2018-07-02T03:30:05.551Z,1.70
2018-07-02T03:32:33.815Z,1.80
2018-07-02T03:35:02.064Z,1.77
2018-07-02T03:37:30.336Z,1.80
2018-07-02T03:39:58.621Z,1.70
2018-07-02T03:42:26.880Z,1.87
2018-07-02T03:44:55.140Z,1.70
2018-07-02T03:47:23.427Z,1.67
2018-07-02T03:49:51.689Z,1.83
2018-07-02T03:52:19.944Z,1.70
2018-07-02T03:54:48.221Z,1.60
2018-07-02T03:57:16.473Z,1.90
2018-07-02T03:59:44.720Z,2.47
2018-07-02T04:02:12.998Z,1.93
2018-07-02T04:04:41.276Z,1.80
2018-07-02T04:07:09.529Z,1.87
2018-07-02T04:09:37.788Z,1.80
2018-07-02T04:12:06.098Z,1.87
2018-07-02T04:14:34.312Z,1.93
2018-07-02T04:17:02.575Z,1.50
2018-07-02T04:19:30.885Z,1.70
2018-07-02T04:21:59.105Z,1.70
2018-07-02T04:24:27.351Z,1.87
2018-07-02T04:26:55.626Z,1.60
2018-07-02T04:29:23.885Z,1.80
2018-07-02T04:31:52.156Z,1.80
2018-07-02T04:34:20.431Z,1.90
2018-07-02T04:36:48.689Z,1.60
2018-07-02T04:39:16.952Z,1.90
2018-07-02T04:41:45.221Z,1.73
2018-07-02T04:44:13.483Z,1.70
2018-07-02T04:46:41.738Z,2.00
2018-07-02T04:49:10.002Z,1.50
2018-07-02T04:51:38.251Z,1.53
2018-07-02T04:54:06.508Z,1.77
2018-07-02T04:56:34.781Z,1.80
2018-07-02T04:59:03.079Z,1.70
2018-07-02T05:01:31.363Z,1.70
2018-07-02T05:03:59.622Z,1.80
2018-07-02T05:06:27.876Z,1.60
2018-07-02T05:08:56.143Z,1.67
2018-07-02T05:11:24.398Z,1.70
2018-07-02T05:13:52.624Z,1.90
2018-07-02T05:16:20.908Z,1.70
2018-07-02T05:18:49.163Z,1.60
2018-07-02T05:21:17.421Z,1.63
2018-07-02T05:23:45.697Z,1.60
2018-07-02T05:26:13.953Z,1.63
2018-07-02T05:28:42.208Z,1.70
2018-07-02T05:31:10.465Z,1.57
2018-07-02T05:33:38.720Z,1.57
2018-07-02T05:36:07.000Z,1.50
2018-07-02T05:38:35.276Z,1.73
2018-07-02T05:41:03.540Z,1.60
2018-07-02T05:43:31.808Z,1.70
2018-07-02T05:46:00.061Z,1.70
2018-07-02T05:48:28.326Z,1.60
2018-07-02T05:50:56.585Z,1.60
2018-07-02T05:53:24.844Z,1.50
2018-07-02T05:55:53.100Z,1.50
2018-07-02T05:58:21.364Z,1.57
2018-07-02T06:00:49.629Z,1.57
2018-07-02T06:03:17.917Z,1.60
2018-07-02T06:05:46.191Z,1.70
2018-07-02T06:08:14.440Z,1.67
2018-07-02T06:10:42.700Z,1.50
2018-07-02T06:13:10.965Z,1.40
2018-07-02T06:15:39.218Z,1.60
2018-07-02T06:18:07.540Z,1.90
2018-07-02T06:20:35.788Z,1.60
2018-07-02T06:23:04.067Z,1.77
2018-07-02T06:25:32.324Z,1.70
2018-07-02T06:28:00.585Z,1.60
2018-07-02T06:30:28.875Z,1.50
2018-07-02T06:32:57.113Z,1.90
2018-07-02T06:35:25.384Z,1.73
2018-07-02T06:37:53.656Z,1.70
2018-07-02T06:40:21.916Z,1.77
2018-07-02T06:42:50.169Z,1.80
2018-07-02T06:45:18.453Z,1.47
2018-07-02T06:47:46.718Z,1.50
2018-07-02T06:50:14.972Z,1.60
2018-07-02T06:52:43.217Z,1.30
2018-07-02T06:55:11.617Z,1.67
2018-07-02T06:57:39.877Z,1.63
2018-07-02T07:00:08.156Z,1.43
2018-07-02T07:02:36.490Z,1.70
2018-07-02T07:05:04.851Z,1.50
2018-07-02T07:07:33.103Z,1.50
2018-07-02T07:10:01.361Z,1.53
2018-07-02T07:12:29.628Z,1.60
2018-07-02T07:14:57.903Z,1.60
2018-07-02T07:17:26.157Z,1.63
2018-07-02T07:19:54.401Z,1.60
2018-07-02T07:22:22.680Z,1.40
2018-07-02T07:24:50.941Z,2.03
2018-07-02T07:27:19.188Z,1.70
2018-07-02T07:29:47.454Z,2.13
2018-07-02T07:32:15.715Z,1.50
2018-07-02T07:34:43.977Z,1.63
2018-07-02T07:37:12.238Z,1.60
2018-07-02T07:39:40.501Z,1.33
2018-07-02T07:42:08.765Z,1.57
2018-07-02T07:44:37.026Z,1.60
2018-07-02T07:47:05.296Z,1.47
2018-07-02T07:49:33.548Z,1.60
2018-07-02T07:52:01.824Z,1.40
2018-07-02T07:54:30.123Z,1.40
2018-07-02T07:56:58.411Z,1.37
2018-07-02T07:59:26.752Z,1.40
2018-07-02T08:01:55.008Z,1.30
2018-07-02T08:04:23.288Z,1.40
2018-07-02T08:06:51.559Z,1.40
2018-07-02T08:09:19.831Z,1.20
2018-07-02T08:11:48.097Z,1.13
2018-07-02T08:14:16.350Z,1.20
2018-07-02T08:16:44.611Z,1.40
2018-07-02T08:19:12.919Z,1.50
2018-07-02T08:21:41.124Z,1.53
2018-07-02T08:24:09.377Z,1.40
2018-07-02T08:26:37.649Z,1.50
2018-07-02T08:29:05.945Z,1.40
2018-07-02T08:31:34.215Z,1.40
2018-07-02T08:34:02.488Z,1.10
2018-07-02T08:36:30.772Z,1.30
2018-07-02T08:38:59.043Z,1.60
2018-07-02T08:41:27.356Z,1.50
2018-07-02T08:43:55.595Z,1.50
2018-07-02T08:46:23.873Z,1.47
2018-07-02T08:48:52.153Z,1.30
2018-07-02T08:51:20.412Z,1.47
2018-07-02T08:53:48.745Z,1.40
2018-07-02T08:56:17.014Z,1.30
2018-07-02T08:58:45.280Z,1.50
2018-07-02T09:01:13.540Z,1.40
2018-07-02T09:03:41.810Z,1.40
2018-07-02T09:06:10.097Z,1.30
2018-07-02T09:08:38.381Z,1.47
2018-07-02T09:11:06.664Z,1.53
2018-07-02T09:13:34.920Z,1.50
2018-07-02T09:16:03.287Z,1.70
2018-07-02T09:18:31.549Z,1.40
2018-07-02T09:20:59.801Z,1.50
2018-07-02T09:23:28.059Z,1.47
2018-07-02T09:25:56.308Z,1.60
2018-07-02T09:28:24.613Z,1.57
2018-07-02T09:30:52.872Z,1.30
2018-07-02T09:33:21.137Z,1.43
2018-07-02T09:35:49.384Z,1.53
2018-07-02T09:38:17.659Z,1.47
2018-07-02T09:40:45.921Z,1.70
2018-07-02T09:43:14.163Z,1.33
2018-07-02T09:45:42.425Z,1.43
2018-07-02T09:48:10.672Z,1.40
2018-07-02T09:50:38.944Z,1.40
2018-07-02T09:53:07.252Z,1.30
2018-07-02T09:55:35.521Z,1.60
2018-07-02T09:58:03.804Z,1.40
2018-07-02T10:00:32.876Z,1.50
2018-07-02T10:03:04.104Z,1.43
2018-07-02T10:05:32.368Z,1.50
2018-07-02T10:08:00.661Z,1.40
2018-07-02T10:10:28.950Z,1.40
2018-07-02T10:12:57.224Z,1.37
2018-07-02T10:15:25.589Z,1.37
2018-07-02T10:17:53.852Z,1.43
2018-07-02T10:20:22.177Z,1.40
2018-07-02T10:22:50.372Z,1.20
2018-07-02T10:25:18.640Z,1.70
2018-07-02T10:27:46.899Z,1.40
2018-07-02T10:30:15.165Z,1.37
2018-07-02T10:32:43.431Z,1.77
2018-07-02T10:35:11.702Z,1.57
2018-07-02T10:37:39.995Z,1.30
2018-07-02T10:40:08.271Z,1.40
2018-07-02T10:42:36.536Z,2.00
2018-07-02T10:45:04.809Z,1.80
2018-07-02T10:47:33.100Z,1.70
2018-07-02T10:50:01.357Z,1.63
2018-07-02T10:52:29.613Z,1.50
2018-07-02T10:54:57.886Z,1.60
2018-07-02T10:57:26.225Z,1.50
2018-07-02T10:59:54.500Z,1.50
2018-07-02T11:02:22.773Z,1.43
2018-07-02T11:04:51.045Z,1.40
2018-07-02T11:07:19.319Z,1.60
2018-07-02T11:09:47.588Z,1.40
2018-07-02T11:12:15.849Z,1.50
2018-07-02T11:14:44.120Z,1.40
2018-07-02T11:17:12.406Z,1.53
2018-07-02T11:19:40.660Z,1.70
2018-07-02T11:22:08.931Z,1.40
2018-07-02T11:24:37.190Z,1.20
2018-07-02T11:27:05.595Z,1.30
2018-07-02T11:29:33.856Z,1.60
2018-07-02T11:32:02.117Z,1.57
2018-07-02T11:34:30.372Z,1.40
2018-07-02T11:36:58.634Z,1.30
2018-07-02T11:39:26.896Z,1.57
2018-07-02T11:41:55.152Z,1.53
2018-07-02T11:44:23.445Z,1.40
2018-07-02T11:46:51.706Z,1.30
2018-07-02T11:49:19.970Z,1.40
2018-07-02T11:51:48.240Z,1.60
2018-07-02T11:54:16.488Z,1.30
2018-07-02T11:56:44.740Z,1.30
2018-07-02T11:59:13.017Z,1.40
2018-07-02T12:01:41.272Z,1.30
2018-07-02T12:04:09.552Z,1.27
2018-07-02T12:06:37.827Z,1.43
2018-07-02T12:09:08.179Z,1.50
2018-07-02T12:11:36.446Z,1.40
2018-07-02T12:14:04.720Z,1.30
2018-07-02T12:16:32.970Z,1.33
2018-07-02T12:19:01.253Z,1.40
2018-07-02T12:21:29.517Z,1.50
2018-07-02T12:23:57.764Z,1.20
2018-07-02T12:26:26.069Z,1.20
2018-07-02T12:28:54.353Z,1.30
2018-07-02T12:31:22.636Z,1.00
2018-07-02T12:33:57.284Z,1.30
2018-07-02T12:36:25.546Z,1.20
2018-07-02T12:38:53.789Z,1.20
2018-07-02T12:41:22.052Z,1.10
2018-07-02T12:43:50.313Z,1.40
2018-07-02T12:46:18.575Z,1.20
2018-07-02T12:48:46.848Z,1.30
2018-07-02T12:51:15.113Z,1.20
2018-07-02T12:53:43.355Z,1.30
2018-07-02T12:56:11.618Z,1.10
2018-07-02T12:58:39.917Z,1.10
2018-07-02T13:01:08.264Z,1.40
2018-07-02T13:03:36.518Z,1.10
2018-07-02T13:06:04.915Z,1.20
2018-07-02T13:08:33.185Z,1.20
2018-07-02T13:11:01.453Z,1.20
2018-07-02T13:13:29.821Z,1.20
2018-07-02T13:15:58.056Z,1.13
2018-07-02T13:18:26.333Z,1.37
2018-07-02T13:20:54.591Z,1.20
2018-07-02T13:23:23.008Z,1.30
2018-07-02T13:25:51.156Z,1.30
2018-07-02T13:28:19.424Z,1.10
2018-07-02T13:30:47.697Z,1.30
2018-07-02T13:33:16.142Z,1.20
2018-07-02T13:35:44.221Z,1.23
2018-07-02T13:38:12.476Z,1.30
2018-07-02T13:40:40.930Z,1.33
2018-07-02T13:43:09.190Z,1.17
2018-07-02T13:45:37.479Z,1.20
2018-07-02T13:48:05.980Z,1.20
2018-07-02T13:50:34.253Z,1.43
2018-07-02T13:53:02.525Z,1.43
2018-07-02T13:55:30.809Z,1.10
2018-07-02T13:57:59.083Z,1.10
2018-07-02T14:00:27.345Z,1.27
2018-07-02T14:02:55.599Z,1.40
2018-07-02T14:05:23.864Z,1.17
2018-07-02T14:07:52.238Z,1.10
2018-07-02T14:10:20.508Z,1.40
2018-07-02T14:12:48.767Z,1.20
2018-07-02T14:15:17.078Z,1.30
2018-07-02T14:17:45.333Z,1.27
2018-07-02T14:20:13.612Z,1.20
2018-07-02T14:22:41.865Z,1.20
2018-07-02T14:25:10.169Z,1.23
2018-07-02T14:27:38.428Z,1.20
2018-07-02T14:30:07.038Z,1.20
2018-07-02T14:32:35.364Z,1.33
2018-07-02T14:35:03.692Z,1.27
2018-07-02T14:37:31.966Z,1.40
2018-07-02T14:40:00.225Z,1.30
2018-07-02T14:42:28.483Z,1.27
2018-07-02T14:44:56.907Z,1.20
2018-07-02T14:47:25.060Z,1.50
2018-07-02T14:49:53.328Z,1.20
2018-07-02T14:52:21.621Z,1.07
2018-07-02T14:54:49.908Z,1.20
2018-07-02T14:57:18.172Z,1.40
2018-07-02T14:59:46.441Z,1.20
2018-07-02T15:02:14.708Z,1.43
2018-07-02T15:04:42.969Z,1.20
2018-07-02T15:07:11.263Z,1.27
2018-07-02T15:09:39.549Z,1.20
2018-07-02T15:12:07.859Z,1.17
2018-07-02T15:14:36.273Z,1.30
2018-07-02T15:17:04.584Z,1.30
2018-07-02T15:19:33.036Z,1.23
2018-07-02T15:22:01.357Z,1.40
2018-07-02T15:24:29.624Z,1.30
2018-07-02T15:26:57.929Z,1.30
2018-07-02T15:29:26.184Z,1.33
2018-07-02T15:31:54.457Z,1.23
2018-07-02T15:34:22.748Z,1.20
2018-07-02T15:36:51.025Z,1.40
2018-07-02T15:39:19.301Z,1.20
2018-07-02T15:41:47.643Z,2.80
2018-07-02T15:44:15.830Z,1.50
2018-07-02T15:46:44.111Z,1.50
2018-07-02T15:49:12.348Z,1.50
2018-07-02T15:51:40.614Z,1.70
2018-07-02T15:54:08.881Z,1.50
2018-07-02T15:56:37.144Z,1.60
2018-07-02T15:59:05.424Z,1.40
2018-07-02T16:01:33.669Z,1.60
2018-07-02T16:04:02.017Z,1.40
2018-07-02T16:06:36.892Z,1.40
2018-07-02T16:09:07.538Z,1.60
2018-07-02T16:11:35.804Z,1.70
2018-07-02T16:14:04.076Z,1.50
2018-07-02T16:16:32.353Z,1.40
2018-07-02T16:19:00.594Z,1.32
2018-07-02T16:21:28.873Z,1.57
2018-07-02T16:23:57.148Z,1.60
2018-07-02T16:26:25.416Z,1.65
2018-07-02T16:28:53.780Z,1.40
2018-07-02T16:31:22.060Z,1.95
2018-07-02T16:33:51.188Z,1.98
2018-07-02T16:36:19.469Z,1.80
2018-07-02T16:38:47.773Z,1.70
2018-07-02T16:41:16.060Z,1.50
2018-07-02T16:43:44.352Z,1.50
2018-07-02T16:46:12.600Z,1.80
2018-07-02T16:48:40.917Z,1.42
2018-07-02T16:51:09.208Z,1.60
2018-07-02T16:53:37.538Z,1.50
2018-07-02T16:56:05.896Z,1.72
2018-07-02T16:58:34.187Z,1.57
2018-07-02T17:01:02.461Z,1.42
2018-07-02T17:03:30.901Z,1.90
2018-07-02T17:05:59.168Z,1.50
2018-07-02T17:08:27.442Z,1.40
2018-07-02T17:10:55.695Z,1.47
2018-07-02T17:13:24.076Z,1.70
2018-07-02T17:15:52.240Z,1.42
2018-07-02T17:18:20.547Z,1.80
2018-07-02T17:20:48.820Z,1.75
2018-07-02T17:23:17.098Z,1.90
2018-07-02T17:25:45.368Z,1.60
2018-07-02T17:28:13.638Z,1.62
2018-07-02T17:30:41.945Z,1.70
2018-07-02T17:33:10.225Z,1.42
2018-07-02T17:35:38.484Z,1.45
2018-07-02T17:38:06.754Z,1.30
2018-07-02T17:40:35.028Z,1.80
2018-07-02T17:43:03.297Z,1.60
2018-07-02T17:45:31.585Z,1.60
2018-07-02T17:47:59.851Z,1.45
2018-07-02T17:50:28.160Z,1.60
2018-07-02T17:52:56.433Z,1.40
2018-07-02T17:55:24.724Z,1.40
2018-07-02T17:57:53.022Z,1.65
2018-07-02T18:00:21.287Z,1.55
2018-07-02T18:02:49.556Z,1.50
2018-07-02T18:05:17.848Z,1.60
2018-07-02T18:07:46.200Z,1.40
2018-07-02T18:10:14.478Z,1.60
2018-07-02T18:12:42.733Z,1.43
2018-07-02T18:15:11.000Z,1.97
2018-07-02T18:17:39.258Z,2.00
2018-07-02T18:20:07.577Z,1.80
2018-07-02T18:22:35.854Z,1.40
2018-07-02T18:25:04.145Z,1.23
2018-07-02T18:27:32.416Z,1.30
2018-07-02T18:30:00.740Z,1.40
2018-07-02T18:32:29.004Z,1.30
2018-07-02T18:34:57.289Z,1.30
2018-07-02T18:37:25.548Z,1.40
2018-07-02T18:39:53.819Z,1.57
2018-07-02T18:42:22.105Z,1.50
2018-07-02T18:44:50.367Z,1.40
2018-07-02T18:47:18.624Z,1.40
2018-07-02T18:49:46.889Z,1.20
2018-07-02T18:52:15.155Z,1.40
2018-07-02T18:54:43.400Z,1.50
2018-07-02T18:57:11.713Z,1.33
2018-07-02T18:59:40.002Z,1.50
2018-07-02T19:02:08.273Z,1.40
2018-07-02T19:04:36.674Z,1.27
2018-07-02T19:07:04.967Z,1.30
2018-07-02T19:09:33.243Z,1.40
2018-07-02T19:12:01.524Z,1.40
2018-07-02T19:14:29.789Z,1.13
2018-07-02T19:16:58.073Z,1.30
2018-07-02T19:19:26.332Z,1.27
2018-07-02T19:21:54.732Z,1.40
2018-07-02T19:24:23.016Z,1.40
2018-07-02T19:26:51.289Z,1.30
2018-07-02T19:29:19.569Z,1.50
2018-07-02T19:31:47.813Z,1.50
2018-07-02T19:34:16.084Z,1.57
2018-07-02T19:36:44.364Z,1.57
2018-07-02T19:39:13.785Z,1.90
2018-07-02T19:41:42.075Z,1.80
2018-07-02T19:44:10.920Z,1.80
2018-07-02T19:46:39.213Z,1.97
2018-07-02T19:49:07.524Z,2.00
2018-07-02T19:51:35.791Z,2.10
2018-07-02T19:54:04.248Z,2.00
2018-07-02T19:56:32.575Z,1.90
2018-07-02T19:59:00.829Z,2.07
2018-07-02T20:01:29.097Z,1.80
2018-07-02T20:03:57.382Z,2.23
2018-07-02T20:06:26.160Z,2.17
2018-07-02T20:08:54.487Z,2.20
2018-07-02T20:11:22.761Z,2.10
2018-07-02T20:13:51.040Z,2.10
2018-07-02T20:16:19.448Z,1.90
2018-07-02T20:18:47.763Z,2.10
2018-07-02T20:21:16.020Z,2.20
2018-07-02T20:23:44.808Z,2.30
2018-07-02T20:26:13.200Z,2.10
2018-07-02T20:28:41.533Z,2.33
2018-07-02T20:31:09.836Z,2.60
2018-07-02T20:33:38.104Z,2.40
2018-07-02T20:36:06.385Z,2.40
2018-07-02T20:38:34.651Z,2.30
2018-07-02T20:41:02.933Z,2.40
2018-07-02T20:43:31.208Z,2.43
2018-07-02T20:45:59.535Z,2.73
2018-07-02T20:48:27.888Z,2.97
2018-07-02T20:50:56.156Z,3.23
2018-07-02T20:53:24.503Z,3.40
2018-07-02T20:55:52.724Z,3.70
2018-07-02T20:58:20.992Z,3.90
2018-07-02T21:00:49.248Z,5.80
2018-07-02T21:03:17.556Z,6.13
2018-07-02T21:05:45.836Z,5.40
2018-07-02T21:08:14.125Z,5.33
2018-07-02T21:10:42.412Z,4.83
2018-07-02T21:13:10.692Z,4.10
2018-07-02T21:15:39.034Z,4.27
2018-07-02T21:18:07.304Z,4.37
2018-07-02T21:20:35.579Z,4.50
2018-07-02T21:23:03.847Z,4.03
2018-07-02T21:25:32.117Z,4.50
2018-07-02T21:28:00.392Z,3.57
2018-07-02T21:30:28.654Z,3.83
2018-07-02T21:32:56.928Z,4.10
2018-07-02T21:35:25.191Z,4.30
2018-07-02T21:37:53.491Z,4.10
2018-07-02T21:40:21.756Z,4.03
2018-07-02T21:42:50.037Z,3.90
2018-07-02T21:45:18.347Z,3.63
2018-07-02T21:47:46.612Z,4.00
2018-07-02T21:50:14.876Z,3.80
2018-07-02T21:52:43.144Z,3.70
2018-07-02T21:55:11.409Z,3.70
2018-07-02T21:57:39.669Z,3.80
2018-07-02T22:00:10.352Z,3.20
2018-07-02T22:02:38.609Z,3.20
2018-07-02T22:05:06.959Z,3.50
2018-07-02T22:07:35.220Z,3.00
2018-07-02T22:10:03.575Z,3.20
2018-07-02T22:12:31.828Z,3.63
2018-07-02T22:15:00.103Z,3.50
2018-07-02T22:17:28.360Z,3.23
2018-07-02T22:19:56.620Z,2.60
2018-07-02T22:22:24.900Z,3.10
2018-07-02T22:24:53.160Z,2.80
2018-07-02T22:27:21.433Z,3.30
2018-07-02T22:29:49.704Z,3.00
2018-07-02T22:32:17.990Z,3.30
2018-07-02T22:34:46.266Z,2.60
2018-07-02T22:37:14.536Z,4.00
2018-07-02T22:39:43.089Z,3.40
2018-07-02T22:42:11.356Z,2.70
2018-07-02T22:44:39.626Z,2.90
2018-07-02T22:47:07.890Z,3.03
2018-07-02T22:49:36.197Z,2.80
2018-07-02T22:52:04.472Z,2.90
2018-07-02T22:54:32.752Z,2.70
2018-07-02T22:57:01.017Z,2.40
2018-07-02T22:59:29.277Z,3.60
2018-07-02T23:01:57.553Z,2.63
2018-07-02T23:04:25.801Z,2.50
2018-07-02T23:06:54.097Z,2.77
2018-07-02T23:09:22.360Z,3.43
2018-07-02T23:11:50.634Z,2.80
2018-07-02T23:14:18.897Z,2.80
2018-07-02T23:16:47.144Z,2.67
2018-07-02T23:19:15.421Z,3.60
2018-07-02T23:21:43.716Z,2.90
2018-07-02T23:24:12.085Z,2.60
2018-07-02T23:26:40.327Z,3.70
2018-07-02T23:29:08.592Z,2.63
2018-07-02T23:31:36.872Z,2.73
2018-07-02T23:34:05.219Z,2.73
2018-07-02T23:36:33.477Z,2.90
2018-07-02T23:39:01.774Z,2.80
2018-07-02T23:41:30.054Z,3.50
2018-07-02T23:43:58.311Z,2.37
2018-07-02T23:46:26.598Z,2.30
2018-07-02T23:48:54.851Z,2.73
2018-07-02T23:51:23.100Z,2.47
2018-07-02T23:53:51.360Z,3.10
2018-07-02T23:56:19.624Z,2.53
2018-07-02T23:58:47.895Z,3.50
